createdAt,value
2017-11-08T00:00:16.197Z,20.40
2017-11-08T00:02:43.737Z,20.90
2017-11-08T00:05:15.734Z,22.27
2017-11-08T00:07:43.267Z,20.63
2017-11-08T00:10:10.781Z,19.03
2017-11-08T00:12:38.293Z,20.53
2017-11-08T00:15:06.602Z,19.53
2017-11-08T00:17:34.137Z,21.83
2017-11-08T00:20:01.649Z,20.17
2017-11-08T00:22:29.164Z,21.50
2017-11-08T00:24:58.942Z,22.00
2017-11-08T00:27:26.502Z,21.30
2017-11-08T00:29:54.013Z,20.20
2017-11-08T00:32:21.516Z,19.87
2017-11-08T00:34:49.061Z,19.93
2017-11-08T00:37:17.341Z,21.40
2017-11-08T00:39:44.876Z,20.83
2017-11-08T00:42:12.408Z,20.47
2017-11-08T00:44:39.913Z,21.80
2017-11-08T00:47:08.212Z,21.33
2017-11-08T00:49:35.721Z,22.57
2017-11-08T00:52:03.228Z,23.00
2017-11-08T00:54:30.768Z,21.77
2017-11-08T00:56:58.316Z,21.97
2017-11-08T00:59:25.816Z,20.80
2017-11-08T01:01:53.317Z,20.10
2017-11-08T01:04:20.855Z,22.87
2017-11-08T01:06:49.119Z,21.83
2017-11-08T01:09:16.628Z,22.53
2017-11-08T01:11:44.157Z,20.90
2017-11-08T01:14:11.768Z,21.70
2017-11-08T01:16:39.308Z,23.10
2017-11-08T01:19:06.908Z,21.60
2017-11-08T01:21:34.543Z,22.80
2017-11-08T01:24:02.093Z,21.90
2017-11-08T01:26:30.467Z,21.23
2017-11-08T01:28:57.978Z,20.70
2017-11-08T01:31:26.272Z,22.23
2017-11-08T01:33:53.800Z,23.60
2017-11-08T01:36:22.080Z,21.77
2017-11-08T01:38:50.600Z,22.83
2017-11-08T01:41:24.985Z,19.60
2017-11-08T01:43:54.519Z,22.90
2017-11-08T01:46:22.025Z,22.30
2017-11-08T01:48:49.604Z,22.03
2017-11-08T01:51:17.134Z,23.77
2017-11-08T01:53:44.682Z,22.00
2017-11-08T01:56:12.301Z,20.23
2017-11-08T01:58:39.885Z,21.40
2017-11-08T02:01:07.435Z,21.50
2017-11-08T02:03:35.783Z,21.40
2017-11-08T02:06:03.307Z,22.50
2017-11-08T02:08:31.627Z,24.40
2017-11-08T02:10:59.181Z,22.37
2017-11-08T02:13:26.722Z,21.40
2017-11-08T02:15:57.212Z,21.90
2017-11-08T02:18:26.374Z,22.80
2017-11-08T02:20:53.912Z,20.87
2017-11-08T02:23:21.453Z,20.70
2017-11-08T02:25:49.001Z,22.00
2017-11-08T02:28:17.402Z,23.37
2017-11-08T02:30:44.967Z,22.27
2017-11-08T02:33:14.569Z,20.47
2017-11-08T02:35:42.161Z,23.43
2017-11-08T02:38:09.715Z,22.37
2017-11-08T02:40:37.256Z,22.50
2017-11-08T02:43:04.821Z,23.93
2017-11-08T02:45:35.271Z,22.13
2017-11-08T02:48:02.829Z,20.43
2017-11-08T02:50:30.372Z,25.00
2017-11-08T02:52:57.878Z,23.90
2017-11-08T02:55:26.158Z,23.23
2017-11-08T02:57:54.458Z,22.87
2017-11-08T03:00:22.033Z,23.90
2017-11-08T03:02:50.493Z,21.77
2017-11-08T03:05:18.000Z,23.27
2017-11-08T03:07:46.285Z,21.20
2017-11-08T03:10:13.809Z,21.67
2017-11-08T03:12:41.318Z,22.13
2017-11-08T03:15:08.851Z,22.20
2017-11-08T03:17:36.362Z,21.97
2017-11-08T03:20:04.629Z,21.77
2017-11-08T03:22:32.927Z,21.40
2017-11-08T03:25:00.433Z,23.40
2017-11-08T03:27:27.940Z,22.27
2017-11-08T03:29:55.476Z,21.30
2017-11-08T03:32:22.987Z,21.43
2017-11-08T03:34:50.489Z,22.40
2017-11-08T03:37:18.031Z,21.60
2017-11-08T03:39:46.302Z,21.43
2017-11-08T03:42:13.805Z,23.67
2017-11-08T03:44:42.105Z,20.97
2017-11-08T03:47:09.612Z,22.10
2017-11-08T03:49:37.153Z,24.23
2017-11-08T03:52:05.432Z,22.07
2017-11-08T03:54:32.945Z,21.07
2017-11-08T03:57:00.472Z,21.27
2017-11-08T03:59:27.980Z,21.60
2017-11-08T04:01:55.492Z,21.67
2017-11-08T04:04:23.109Z,23.17
2017-11-08T04:06:50.635Z,22.00
2017-11-08T04:09:18.973Z,22.90
2017-11-08T04:11:46.472Z,21.20
2017-11-08T04:14:14.003Z,23.13
2017-11-08T04:16:41.588Z,21.43
2017-11-08T04:19:09.093Z,23.40
2017-11-08T04:21:36.596Z,23.43
2017-11-08T04:24:04.136Z,21.00
2017-11-08T04:26:31.652Z,20.20
2017-11-08T04:28:59.164Z,23.47
2017-11-08T04:31:26.704Z,21.70
2017-11-08T04:33:54.217Z,22.47
2017-11-08T04:36:21.733Z,21.73
2017-11-08T04:38:49.261Z,20.23
2017-11-08T04:41:16.792Z,21.63
2017-11-08T04:43:44.289Z,21.90
2017-11-08T04:46:11.802Z,20.20
2017-11-08T04:48:40.101Z,21.03
2017-11-08T04:51:07.608Z,22.33
2017-11-08T04:53:35.108Z,21.37
2017-11-08T04:56:03.425Z,23.80
2017-11-08T04:58:30.940Z,22.37
2017-11-08T05:00:59.215Z,21.93
2017-11-08T05:03:27.700Z,23.33
2017-11-08T05:05:55.977Z,20.93
2017-11-08T05:08:24.252Z,20.97
2017-11-08T05:10:52.564Z,21.10
2017-11-08T05:13:20.073Z,22.20
2017-11-08T05:15:47.581Z,20.10
2017-11-08T05:18:15.108Z,21.67
2017-11-08T05:20:43.384Z,24.00
2017-11-08T05:23:11.664Z,22.30
2017-11-08T05:25:39.973Z,21.80
2017-11-08T05:28:07.497Z,22.70
2017-11-08T05:30:35.774Z,19.37
2017-11-08T05:33:03.321Z,21.33
2017-11-08T05:35:30.829Z,22.13
2017-11-08T05:37:58.336Z,21.33
2017-11-08T05:40:25.871Z,20.57
2017-11-08T05:42:53.377Z,19.87
2017-11-08T05:45:21.644Z,21.97
2017-11-08T05:47:50.083Z,19.97
2017-11-08T05:50:17.611Z,22.10
2017-11-08T05:52:45.194Z,21.70
2017-11-08T05:55:12.817Z,22.53
2017-11-08T05:57:40.329Z,21.30
2017-11-08T06:00:08.834Z,24.63
2017-11-08T06:02:36.343Z,23.07
2017-11-08T06:05:03.856Z,22.63
2017-11-08T06:07:31.432Z,22.70
2017-11-08T06:09:59.751Z,22.90
2017-11-08T06:12:27.265Z,24.13
2017-11-08T06:14:54.805Z,22.47
2017-11-08T06:17:22.317Z,22.60
2017-11-08T06:19:49.826Z,22.83
2017-11-08T06:22:17.360Z,23.63
2017-11-08T06:24:44.863Z,26.10
2017-11-08T06:27:13.141Z,23.30
2017-11-08T06:29:41.436Z,23.40
2017-11-08T06:32:08.948Z,22.23
2017-11-08T06:34:36.459Z,23.23
2017-11-08T06:37:04.005Z,23.60
2017-11-08T06:39:32.289Z,24.23
2017-11-08T06:42:00.563Z,25.60
2017-11-08T06:44:28.866Z,24.33
2017-11-08T06:46:56.377Z,25.00
2017-11-08T06:49:23.889Z,23.50
2017-11-08T06:51:52.378Z,25.13
2017-11-08T06:54:19.911Z,25.73
2017-11-08T06:56:47.413Z,23.33
2017-11-08T06:59:14.937Z,24.33
2017-11-08T07:01:42.439Z,25.67
2017-11-08T07:04:09.977Z,24.07
2017-11-08T07:06:37.494Z,25.10
2017-11-08T07:09:05.001Z,24.00
2017-11-08T07:11:32.545Z,27.33
2017-11-08T07:14:00.044Z,25.83
2017-11-08T07:16:27.558Z,24.80
2017-11-08T07:18:55.091Z,26.90
2017-11-08T07:21:23.370Z,23.80
2017-11-08T07:23:51.676Z,23.70
2017-11-08T07:26:19.176Z,22.90
2017-11-08T07:28:46.690Z,24.30
2017-11-08T07:31:14.232Z,24.90
2017-11-08T07:33:42.538Z,25.50
2017-11-08T07:36:10.052Z,24.23
2017-11-08T07:38:37.564Z,24.30
2017-11-08T07:41:05.200Z,23.03
2017-11-08T07:43:33.481Z,25.63
2017-11-08T07:46:02.370Z,23.80
2017-11-08T07:48:30.673Z,25.37
2017-11-08T07:50:58.171Z,23.47
2017-11-08T07:53:25.688Z,24.57
2017-11-08T07:55:58.800Z,26.40
2017-11-08T07:58:26.339Z,25.80
2017-11-08T08:00:53.872Z,23.67
2017-11-08T08:03:25.168Z,24.07
2017-11-08T08:05:52.696Z,24.03
2017-11-08T08:08:20.209Z,24.87
2017-11-08T08:10:47.741Z,22.33
2017-11-08T08:13:15.312Z,23.83
2017-11-08T08:15:42.836Z,22.93
2017-11-08T08:18:10.349Z,23.50
2017-11-08T08:20:37.888Z,22.77
2017-11-08T08:23:05.398Z,23.90
2017-11-08T08:25:32.959Z,22.50
2017-11-08T08:28:01.266Z,24.60
2017-11-08T08:30:28.779Z,21.70
2017-11-08T08:32:56.292Z,23.17
2017-11-08T08:35:23.824Z,22.10
2017-11-08T08:37:51.321Z,24.07
2017-11-08T08:40:18.868Z,22.03
2017-11-08T08:42:46.372Z,22.63
2017-11-08T08:45:13.880Z,21.10
2017-11-08T08:47:41.409Z,22.07
2017-11-08T08:50:08.915Z,19.90
2017-11-08T08:52:36.440Z,20.80
2017-11-08T08:55:03.953Z,20.87
2017-11-08T08:57:31.456Z,19.70
2017-11-08T08:59:58.984Z,19.53
2017-11-08T09:02:28.398Z,18.50
2017-11-08T09:04:55.911Z,17.93
2017-11-08T09:07:23.447Z,19.67
2017-11-08T09:09:50.958Z,17.40
2017-11-08T09:12:19.253Z,18.13
2017-11-08T09:14:46.793Z,14.80
2017-11-08T09:17:14.304Z,17.17
2017-11-08T09:19:41.808Z,16.90
2017-11-08T09:22:09.340Z,17.27
2017-11-08T09:24:36.859Z,16.97
2017-11-08T09:27:05.136Z,15.13
2017-11-08T09:29:34.406Z,15.83
2017-11-08T09:32:02.670Z,14.20
2017-11-08T09:34:30.212Z,15.53
2017-11-08T09:36:57.704Z,13.00
2017-11-08T09:39:25.204Z,15.97
2017-11-08T09:42:00.432Z,13.73
2017-11-08T09:44:28.702Z,11.53
2017-11-08T09:46:58.087Z,12.60
2017-11-08T09:49:25.620Z,11.47
2017-11-08T09:51:53.119Z,12.30
2017-11-08T09:54:20.662Z,11.57
2017-11-08T09:56:48.204Z,11.90
2017-11-08T09:59:16.492Z,12.00
2017-11-08T10:01:44.002Z,9.80
2017-11-08T10:04:11.530Z,9.50
2017-11-08T10:06:39.808Z,8.90
2017-11-08T10:09:08.117Z,8.70
2017-11-08T10:11:38.552Z,7.47
2017-11-08T10:14:06.088Z,7.50
2017-11-08T10:16:33.650Z,6.80
2017-11-08T10:19:02.957Z,6.90
2017-11-08T10:21:30.458Z,7.50
2017-11-08T10:23:57.989Z,7.07
2017-11-08T10:26:25.529Z,7.63
2017-11-08T10:28:53.051Z,7.23
2017-11-08T10:31:20.567Z,6.27
2017-11-08T10:33:48.109Z,7.10
2017-11-08T10:36:16.376Z,7.20
2017-11-08T10:38:44.657Z,8.17
2017-11-08T10:41:12.194Z,8.30
2017-11-08T10:43:39.656Z,6.90
2017-11-08T10:46:07.181Z,8.53
2017-11-08T10:48:37.296Z,6.60
2017-11-08T10:51:04.841Z,8.80
2017-11-08T10:53:32.360Z,7.80
2017-11-08T10:55:59.899Z,8.57
2017-11-08T10:58:27.416Z,10.43
2017-11-08T11:00:54.935Z,9.37
2017-11-08T11:03:26.378Z,8.30
2017-11-08T11:05:54.661Z,9.20
2017-11-08T11:08:22.201Z,8.80
2017-11-08T11:10:50.489Z,8.27
2017-11-08T11:13:18.782Z,8.17
2017-11-08T11:15:46.334Z,9.00
2017-11-08T11:18:14.610Z,8.60
2017-11-08T11:20:48.179Z,8.60
2017-11-08T11:23:15.708Z,7.43
2017-11-08T11:25:47.061Z,7.60
2017-11-08T11:28:14.614Z,8.43
2017-11-08T11:30:43.934Z,9.40
2017-11-08T11:33:11.454Z,8.10
2017-11-08T11:35:38.992Z,8.83
2017-11-08T11:38:13.158Z,9.17
2017-11-08T11:40:40.693Z,9.50
2017-11-08T11:43:08.202Z,8.27
2017-11-08T11:45:36.473Z,8.03
2017-11-08T11:48:04.785Z,8.40
2017-11-08T11:50:33.086Z,9.53
2017-11-08T11:53:00.625Z,8.07
2017-11-08T11:55:28.162Z,7.97
2017-11-08T11:57:55.677Z,8.30
2017-11-08T12:00:23.193Z,7.93
2017-11-08T12:02:50.733Z,6.90
2017-11-08T12:05:18.265Z,8.00
2017-11-08T12:07:45.794Z,8.30
2017-11-08T12:10:13.331Z,7.43
2017-11-08T12:12:40.848Z,7.50
2017-11-08T12:15:08.403Z,8.13
2017-11-08T12:17:35.941Z,8.50
2017-11-08T12:20:04.219Z,7.50
2017-11-08T12:22:32.534Z,8.93
2017-11-08T12:25:00.043Z,6.70
2017-11-08T12:27:32.276Z,6.10
2017-11-08T12:29:59.787Z,6.67
2017-11-08T12:35:09.992Z,7.63
2017-11-08T12:37:37.517Z,7.87
2017-11-08T12:40:11.793Z,7.67
2017-11-08T12:42:39.317Z,7.37
2017-11-08T12:45:12.401Z,7.27
2017-11-08T12:47:39.957Z,7.50
2017-11-08T12:50:07.485Z,6.90
2017-11-08T12:52:35.809Z,6.80
2017-11-08T12:55:03.323Z,6.50
2017-11-08T12:57:36.737Z,7.50
2017-11-08T13:00:04.255Z,7.90
2017-11-08T13:02:31.762Z,8.43
2017-11-08T13:05:00.090Z,7.70
2017-11-08T13:07:27.606Z,7.47
2017-11-08T13:09:55.138Z,6.93
2017-11-08T13:12:22.663Z,7.40
2017-11-08T13:14:50.173Z,7.80
2017-11-08T13:17:18.487Z,6.63
2017-11-08T13:19:45.998Z,7.20
2017-11-08T13:22:13.497Z,7.53
2017-11-08T13:24:41.051Z,7.13
2017-11-08T13:27:08.547Z,6.63
2017-11-08T13:29:36.050Z,6.33
2017-11-08T13:32:03.590Z,5.40
2017-11-08T13:34:31.100Z,6.70
2017-11-08T13:36:58.606Z,6.50
2017-11-08T13:39:26.134Z,5.70
2017-11-08T13:41:53.638Z,5.77
2017-11-08T13:44:21.161Z,5.20
2017-11-08T13:46:48.689Z,7.30
2017-11-08T13:49:16.211Z,5.80
2017-11-08T13:51:43.724Z,6.40
2017-11-08T13:54:11.274Z,6.57
2017-11-08T13:56:38.785Z,6.07
2017-11-08T13:59:06.295Z,6.43
2017-11-08T14:01:33.838Z,6.07
2017-11-08T14:04:07.148Z,6.63
2017-11-08T14:06:34.694Z,6.87
2017-11-08T14:09:02.998Z,5.93
2017-11-08T14:11:30.511Z,6.97
2017-11-08T14:13:58.026Z,7.17
2017-11-08T14:16:25.561Z,6.63
2017-11-08T14:18:53.071Z,8.00
2017-11-08T14:21:20.603Z,7.10
2017-11-08T14:23:48.111Z,7.33
2017-11-08T14:26:16.377Z,6.53
2017-11-08T14:28:43.913Z,7.53
2017-11-08T14:31:11.425Z,6.87
2017-11-08T14:33:40.797Z,7.10
2017-11-08T14:36:09.110Z,7.93
2017-11-08T14:38:36.617Z,8.20
2017-11-08T14:41:04.163Z,7.50
2017-11-08T14:43:31.673Z,6.43
2017-11-08T14:45:59.953Z,6.17
2017-11-08T14:48:28.263Z,6.63
2017-11-08T14:50:55.772Z,6.83
2017-11-08T14:53:23.284Z,6.20
2017-11-08T14:55:50.841Z,7.77
2017-11-08T14:58:18.354Z,8.10
2017-11-08T15:00:45.858Z,7.43
2017-11-08T15:03:13.397Z,7.97
2017-11-08T15:05:40.908Z,6.57
2017-11-08T15:08:08.411Z,7.40
2017-11-08T15:10:35.954Z,7.70
2017-11-08T15:13:04.249Z,7.47
2017-11-08T15:15:31.810Z,10.23
2017-11-08T15:17:59.338Z,9.30
2017-11-08T15:20:28.654Z,7.10
2017-11-08T15:22:56.985Z,12.03
2017-11-08T15:25:24.503Z,10.40
2017-11-08T15:27:52.009Z,9.23
2017-11-08T15:30:25.226Z,9.00
2017-11-08T15:32:52.739Z,8.93
2017-11-08T15:35:21.061Z,9.53
2017-11-08T15:37:48.580Z,7.93
2017-11-08T15:47:15.844Z,6.50
2017-11-08T15:49:43.365Z,6.53
2017-11-08T15:52:10.902Z,7.30
2017-11-08T15:54:38.410Z,7.03
2017-11-08T15:57:06.682Z,7.40
2017-11-08T15:59:34.230Z,6.80
2017-11-08T16:02:01.726Z,8.87
2017-11-08T16:04:30.001Z,8.27
2017-11-08T16:06:58.458Z,7.47
2017-11-08T16:09:25.986Z,8.20
2017-11-08T16:12:00.145Z,6.37
2017-11-08T16:14:27.657Z,8.20
2017-11-08T16:16:55.165Z,7.03
2017-11-08T16:19:22.718Z,6.53
2017-11-08T16:21:50.306Z,7.87
2017-11-08T16:24:17.826Z,6.97
2017-11-08T16:26:45.367Z,7.63
2017-11-08T16:29:27.733Z,8.23
2017-11-08T16:31:55.281Z,6.57
2017-11-08T16:34:22.831Z,6.97
2017-11-08T16:36:50.362Z,7.17
2017-11-08T16:39:17.881Z,7.27
2017-11-08T16:41:45.399Z,7.00
2017-11-08T16:44:12.936Z,7.97
2017-11-08T16:46:40.535Z,9.40
2017-11-08T16:49:08.034Z,7.97
2017-11-08T16:51:35.921Z,8.00
2017-11-08T16:54:03.469Z,8.13
2017-11-08T16:56:30.981Z,7.70
2017-11-08T16:58:58.526Z,7.60
2017-11-08T17:01:26.097Z,7.57
2017-11-08T17:03:53.790Z,8.90
2017-11-08T17:06:21.323Z,9.00
2017-11-08T17:08:48.881Z,9.93
2017-11-08T17:11:16.405Z,10.23
2017-11-08T17:13:43.947Z,9.03
2017-11-08T17:16:11.470Z,8.50
2017-11-08T17:18:38.981Z,8.83
2017-11-08T17:21:06.764Z,8.70
2017-11-08T17:23:34.326Z,10.27
2017-11-08T17:26:01.848Z,11.17
2017-11-08T17:28:29.470Z,11.37
2017-11-08T17:30:58.413Z,9.37
2017-11-08T17:33:25.954Z,11.27
2017-11-08T17:35:53.520Z,10.33
2017-11-08T17:38:21.117Z,11.40
2017-11-08T17:40:48.628Z,10.60
2017-11-08T17:43:16.918Z,11.07
2017-11-08T17:45:44.466Z,9.90
2017-11-08T17:48:11.986Z,10.93
2017-11-08T17:50:39.513Z,9.90
2017-11-08T17:53:07.051Z,10.10
2017-11-08T17:55:34.601Z,12.07
2017-11-08T17:58:02.886Z,10.60
2017-11-08T18:00:30.405Z,11.43
2017-11-08T18:02:59.579Z,10.70
2017-11-08T18:05:27.152Z,10.87
2017-11-08T18:07:54.701Z,11.23
2017-11-08T18:10:22.240Z,10.07
2017-11-08T18:12:49.758Z,13.80
2017-11-08T18:15:17.297Z,12.80
2017-11-08T18:17:44.810Z,11.77
2017-11-08T18:20:12.326Z,12.53
2017-11-08T18:22:39.855Z,12.40
2017-11-08T18:25:07.371Z,10.47
2017-11-08T18:27:35.650Z,10.20
2017-11-08T18:30:03.969Z,9.50
2017-11-08T18:32:31.473Z,9.87
2017-11-08T18:34:59.751Z,11.77
2017-11-08T18:37:27.317Z,10.47
2017-11-08T18:39:55.606Z,10.50
2017-11-08T18:42:23.921Z,10.80
2017-11-08T18:44:51.463Z,12.20
2017-11-08T18:47:18.969Z,10.37
2017-11-08T18:49:46.505Z,11.17
2017-11-08T18:52:14.017Z,11.90
2017-11-08T18:54:41.538Z,12.73
2017-11-08T18:57:09.143Z,12.40
2017-11-08T18:59:36.682Z,12.20
2017-11-08T19:02:04.994Z,11.87
2017-11-08T19:04:32.533Z,11.30
2017-11-08T19:07:00.831Z,11.67
2017-11-08T19:09:28.353Z,12.87
2017-11-08T19:11:56.667Z,12.40
2017-11-08T19:14:24.173Z,11.83
2017-11-08T19:16:51.799Z,12.87
2017-11-08T19:19:19.531Z,11.73
2017-11-08T19:21:47.082Z,11.60
2017-11-08T19:24:15.461Z,12.10
2017-11-08T19:26:43.087Z,12.27
2017-11-08T19:29:10.617Z,11.90
2017-11-08T19:31:38.279Z,11.53
2017-11-08T19:34:05.904Z,12.80
2017-11-08T19:36:33.736Z,14.27
2017-11-08T19:39:02.186Z,14.60
2017-11-08T19:41:30.538Z,12.73
2017-11-08T19:43:58.721Z,14.37
2017-11-08T19:46:27.112Z,15.00
2017-11-08T19:48:55.560Z,14.10
2017-11-08T19:51:23.762Z,13.03
2017-11-08T19:53:52.090Z,13.90
2017-11-08T19:56:20.663Z,13.73
2017-11-08T19:58:49.131Z,12.40
2017-11-08T20:01:17.771Z,13.60
2017-11-08T20:03:46.339Z,14.90
2017-11-08T20:06:14.785Z,14.20
2017-11-08T20:08:43.484Z,15.73
2017-11-08T20:11:12.044Z,15.50
2017-11-08T20:13:41.767Z,11.70
2017-11-08T20:16:10.980Z,12.93
2017-11-08T20:18:40.273Z,11.97
2017-11-08T20:21:08.963Z,10.87
2017-11-08T20:23:38.015Z,16.57
2017-11-08T20:26:06.636Z,13.70
2017-11-08T20:28:35.442Z,13.83
2017-11-08T20:31:05.215Z,13.30
2017-11-08T20:33:34.180Z,13.80
2017-11-08T20:36:03.059Z,12.30
2017-11-08T20:38:31.720Z,12.40
2017-11-08T20:41:00.321Z,10.93
2017-11-08T20:43:28.362Z,11.23
2017-11-08T20:45:56.020Z,12.27
2017-11-08T20:48:23.892Z,11.97
2017-11-08T20:50:51.966Z,12.10
2017-11-08T20:53:19.831Z,13.90
2017-11-08T20:55:47.632Z,12.60
2017-11-08T20:58:16.394Z,14.20
2017-11-08T21:00:44.045Z,12.20
2017-11-08T21:03:11.574Z,12.83
2017-11-08T21:05:39.882Z,12.10
2017-11-08T21:08:07.404Z,13.10
2017-11-08T21:10:34.919Z,12.87
2017-11-08T21:13:02.457Z,13.13
2017-11-08T21:15:29.969Z,13.20
2017-11-08T21:17:57.474Z,12.80
2017-11-08T21:20:25.029Z,15.90
2017-11-08T21:22:52.529Z,15.50
2017-11-08T21:25:20.036Z,13.70
2017-11-08T21:27:47.614Z,13.50
2017-11-08T21:30:15.125Z,12.53
2017-11-08T21:32:42.636Z,11.43
2017-11-08T21:35:10.173Z,11.63
2017-11-08T21:37:38.448Z,12.53
2017-11-08T21:40:06.732Z,13.47
2017-11-08T21:42:34.309Z,12.60
2017-11-08T21:45:01.821Z,11.73
2017-11-08T21:47:29.342Z,11.40
2017-11-08T21:49:56.868Z,13.80
2017-11-08T21:52:24.392Z,10.93
2017-11-08T21:54:51.935Z,12.30
2017-11-08T21:57:19.494Z,11.00
2017-11-08T21:59:47.006Z,11.87
2017-11-08T22:02:15.299Z,11.93
2017-11-08T22:04:42.813Z,13.33
2017-11-08T22:07:10.354Z,12.93
2017-11-08T22:09:37.898Z,12.30
2017-11-08T22:12:05.403Z,11.20
2017-11-08T22:14:32.960Z,11.60
2017-11-08T22:17:00.480Z,11.93
2017-11-08T22:19:27.998Z,10.80
2017-11-08T22:21:55.533Z,11.70
2017-11-08T22:24:24.847Z,11.90
2017-11-08T22:26:53.133Z,11.50
2017-11-08T22:29:21.431Z,12.27
2017-11-08T22:31:48.969Z,12.43
2017-11-08T22:34:16.919Z,12.37
2017-11-08T22:36:45.247Z,12.17
2017-11-08T22:39:12.759Z,11.43
2017-11-08T22:41:40.272Z,10.80
2017-11-08T22:44:07.816Z,11.00
2017-11-08T22:46:35.340Z,12.53
2017-11-08T22:49:02.874Z,13.73
2017-11-08T22:51:30.403Z,11.83
2017-11-08T22:53:57.918Z,12.87
2017-11-08T22:56:25.453Z,9.87
2017-11-08T22:58:52.969Z,13.53
2017-11-08T23:01:20.477Z,11.13
2017-11-08T23:03:48.017Z,11.77
2017-11-08T23:06:15.538Z,12.70
2017-11-08T23:08:43.082Z,13.30
2017-11-08T23:11:10.598Z,12.50
2017-11-08T23:13:38.886Z,13.33
2017-11-08T23:16:06.428Z,13.00
2017-11-08T23:18:33.952Z,15.00
2017-11-08T23:21:01.511Z,17.77
2017-11-08T23:23:29.824Z,16.77
2017-11-08T23:25:57.345Z,16.83
2017-11-08T23:28:24.853Z,18.10
2017-11-08T23:30:53.915Z,14.67
2017-11-08T23:33:21.422Z,17.50
2017-11-08T23:35:48.975Z,15.87
2017-11-08T23:38:16.482Z,16.03
2017-11-08T23:40:44.000Z,15.77
2017-11-08T23:43:11.545Z,15.50
2017-11-08T23:45:39.061Z,16.00
2017-11-08T23:48:06.566Z,15.30
2017-11-08T23:50:34.123Z,16.10
2017-11-08T23:53:03.659Z,16.10
2017-11-08T23:55:31.173Z,16.53
2017-11-08T23:57:58.750Z,14.80
